Terminal Aerodrome Forecast
Issued by NWS Sioux Falls, SD

Home | Current Version | Previous Version | Graphics & Text | Print | Product List | Glossary On
Versions: 1 2 3 4 5 6 7 8 9 10 11 12 13 14 15 16 17 18 19 20 21 22 23 24 25 26 27 28 29 30 31 32 33 34 35 36 37 38
240
FTUS43 KFSD 131130
TAFSUX
TAF
KSUX 131130Z 1312/1412 12005KT P6SM OVC100
     FM131700 14009KT P6SM OVC060
     FM132100 15013KT P6SM OVC050
     FM140600 14017G26KT P6SM SN OVC040
     FM140800 15017G27KT 3SM -SN BLSN OVC035
     FM140900 15017G26KT 3SM -SN OVC035
     FM141000 15016G24KT P6SM VCSH OVC040=

USA.gov is the U.S. government's official web portal to all federal, state and local government web resources and services.